Overview Statistics Trail Chart Weather Telemetry Raw packets
 

This is the latest recevied weather packets stored in our database for station/object KBTL-WX. If no packets are shown the sender has not sent any weather packets the latest 10 day(s).

<< 12 13 14 15 16 17 18 >>
Time Temp. Humidity Pressure Rain* Wind** Luminosity Snow
1777651240 6.67° C 67% 981.8 hPa 0 mm - - -
1777650313 6.67° C 69% 981.9 hPa 0 mm - - -
1777649427 6.67° C 67% 982.4 hPa 0 mm - - -
1777648513 7.22° C 67% 982.4 hPa 0 mm - - -
1777647637 6.67° C 67% 982.4 hPa 0 mm - - -
1777646713 6.67° C 75% 981.4 hPa 0 mm - - -
1777645831 6.67° C 74% 982.2 hPa 0 mm - - -
1777644913 6.11° C 74% 982.1 hPa 0 mm - - -
1777644039 6.11° C 74% 982.1 hPa 0 mm - - -
1777643113 5.56° C 77% 981.5 hPa 0 mm - - -
1777642228 5° C 77% 981.5 hPa 0 mm - - -
1777641313 5° C 77% 981.5 hPa 0 mm - - -
1777640453 5° C 77% 981.5 hPa 0 mm - - -
1777639521 4.44° C 88% 981.1 hPa 0 mm - - -
1777638630 4.44° C 90% 981.2 hPa 0 mm - - -
1777637713 4.44° C 90% 981.2 hPa 0 mm - - -
1777636838 3.89° C 90% 981.2 hPa 0 mm - - -
1777635913 3.89° C 93% 980.4 hPa 0 mm - - -
1777635028 3.89° C 94% 980.7 hPa 0 mm - - -
1777634113 3.33° C 94% 980.7 hPa 0 mm - - -
1777633237 3.33° C 94% 980.7 hPa 0 mm - - -
1777632313 3.33° C 93% 980.5 hPa 0 mm - - -
1777631431 3.33° C 89% 981.1 hPa 0 mm - - -
1777630513 3.33° C 89% 981.1 hPa 0 mm - - -
1777629637 3.33° C 89% 981.1 hPa 0 mm - - -

* Rain latest hour (hover to see other rain measurements)
** Current wind speed in m/s (hover to see current wind gust speed)